sensor_id;sensor_type;location;lat;lon;timestamp;P1;durP1;ratioP1;P2;durP2;ratioP2
1354;SDS011;671;48.972;9.276;2023-06-14T00:01:08;0.30;;;0.30;;
1354;SDS011;671;48.972;9.276;2023-06-14T00:03:35;0.40;;;0.40;;
1354;SDS011;671;48.972;9.276;2023-06-14T00:06:01;0.40;;;0.40;;
1354;SDS011;671;48.972;9.276;2023-06-14T00:08:28;0.50;;;0.50;;
1354;SDS011;671;48.972;9.276;2023-06-14T00:10:54;0.30;;;0.30;;
1354;SDS011;671;48.972;9.276;2023-06-14T00:13:21;0.40;;;0.40;;
1354;SDS011;671;48.972;9.276;2023-06-14T00:15:47;0.30;;;0.20;;
1354;SDS011;671;48.972;9.276;2023-06-14T00:18:14;0.40;;;0.40;;
1354;SDS011;671;48.972;9.276;2023-06-14T00:20:40;0.30;;;0.20;;
1354;SDS011;671;48.972;9.276;2023-06-14T00:23:07;0.40;;;0.40;;
1354;SDS011;671;48.972;9.276;2023-06-14T00:25:34;0.40;;;0.40;;
1354;SDS011;671;48.972;9.276;2023-06-14T00:28:00;0.30;;;0.30;;
1354;SDS011;671;48.972;9.276;2023-06-14T00:30:27;0.40;;;0.40;;
1354;SDS011;671;48.972;9.276;2023-06-14T00:32:56;0.50;;;0.50;;
1354;SDS011;671;48.972;9.276;2023-06-14T00:35:23;0.30;;;0.30;;
1354;SDS011;671;48.972;9.276;2023-06-14T00:37:50;0.40;;;0.40;;
1354;SDS011;671;48.972;9.276;2023-06-14T00:40:16;0.40;;;0.40;;
1354;SDS011;671;48.972;9.276;2023-06-14T00:42:43;0.40;;;0.40;;
1354;SDS011;671;48.972;9.276;2023-06-14T00:45:10;0.40;;;0.40;;
1354;SDS011;671;48.972;9.276;2023-06-14T00:47:36;0.40;;;0.40;;
1354;SDS011;671;48.972;9.276;2023-06-14T00:50:06;0.40;;;0.40;;
1354;SDS011;671;48.972;9.276;2023-06-14T00:52:33;0.40;;;0.40;;
1354;SDS011;671;48.972;9.276;2023-06-14T00:55:00;0.33;;;0.33;;
1354;SDS011;671;48.972;9.276;2023-06-14T00:57:27;0.33;;;0.30;;
1354;SDS011;671;48.972;9.276;2023-06-14T00:59:55;0.40;;;0.30;;
1354;SDS011;671;48.972;9.276;2023-06-14T01:02:22;0.40;;;0.30;;
1354;SDS011;671;48.972;9.276;2023-06-14T01:04:50;0.40;;;0.40;;
1354;SDS011;671;48.972;9.276;2023-06-14T01:07:28;0.40;;;0.40;;
1354;SDS011;671;48.972;9.276;2023-06-14T01:13:13;0.50;;;0.50;;
1354;SDS011;671;48.972;9.276;2023-06-14T01:15:47;0.40;;;0.40;;
1354;SDS011;671;48.972;9.276;2023-06-14T01:18:15;0.40;;;0.30;;
1354;SDS011;671;48.972;9.276;2023-06-14T01:20:45;0.47;;;0.47;;
1354;SDS011;671;48.972;9.276;2023-06-14T01:23:19;0.43;;;0.43;;
1354;SDS011;671;48.972;9.276;2023-06-14T01:25:47;0.43;;;0.43;;
1354;SDS011;671;48.972;9.276;2023-06-14T01:28:18;0.40;;;0.40;;
1354;SDS011;671;48.972;9.276;2023-06-14T01:30:50;0.40;;;0.40;;
1354;SDS011;671;48.972;9.276;2023-06-14T01:33:19;0.40;;;0.40;;
1354;SDS011;671;48.972;9.276;2023-06-14T01:35:49;0.50;;;0.50;;
1354;SDS011;671;48.972;9.276;2023-06-14T01:38:17;0.50;;;0.50;;
1354;SDS011;671;48.972;9.276;2023-06-14T01:40:46;0.50;;;0.50;;
1354;SDS011;671;48.972;9.276;2023-06-14T01:43:14;0.40;;;0.40;;
1354;SDS011;671;48.972;9.276;2023-06-14T01:45:42;0.40;;;0.30;;
1354;SDS011;671;48.972;9.276;2023-06-14T01:48:10;0.40;;;0.33;;
1354;SDS011;671;48.972;9.276;2023-06-14T01:50:37;0.40;;;0.30;;
1354;SDS011;671;48.972;9.276;2023-06-14T01:53:06;0.40;;;0.40;;
1354;SDS011;671;48.972;9.276;2023-06-14T01:55:34;0.40;;;0.30;;
1354;SDS011;671;48.972;9.276;2023-06-14T01:58:03;0.40;;;0.40;;
1354;SDS011;671;48.972;9.276;2023-06-14T02:00:30;0.40;;;0.40;;
1354;SDS011;671;48.972;9.276;2023-06-14T02:02:57;0.50;;;0.50;;
1354;SDS011;671;48.972;9.276;2023-06-14T02:05:23;0.40;;;0.37;;
1354;SDS011;671;48.972;9.276;2023-06-14T02:07:50;0.43;;;0.43;;
1354;SDS011;671;48.972;9.276;2023-06-14T02:10:16;0.50;;;0.50;;
1354;SDS011;671;48.972;9.276;2023-06-14T02:12:43;0.37;;;0.30;;
1354;SDS011;671;48.972;9.276;2023-06-14T02:15:10;0.40;;;0.33;;
1354;SDS011;671;48.972;9.276;2023-06-14T02:17:43;0.40;;;0.40;;
1354;SDS011;671;48.972;9.276;2023-06-14T02:20:10;0.40;;;0.40;;
1354;SDS011;671;48.972;9.276;2023-06-14T02:22:37;0.50;;;0.50;;
1354;SDS011;671;48.972;9.276;2023-06-14T02:25:04;0.50;;;0.50;;
1354;SDS011;671;48.972;9.276;2023-06-14T02:27:31;0.40;;;0.40;;
1354;SDS011;671;48.972;9.276;2023-06-14T02:29:57;0.50;;;0.50;;
1354;SDS011;671;48.972;9.276;2023-06-14T02:32:24;0.40;;;0.40;;
1354;SDS011;671;48.972;9.276;2023-06-14T02:34:52;0.40;;;0.40;;
1354;SDS011;671;48.972;9.276;2023-06-14T02:37:19;0.40;;;0.40;;
1354;SDS011;671;48.972;9.276;2023-06-14T02:39:46;0.40;;;0.40;;
1354;SDS011;671;48.972;9.276;2023-06-14T02:42:12;0.50;;;0.50;;
1354;SDS011;671;48.972;9.276;2023-06-14T02:44:39;0.50;;;0.50;;
1354;SDS011;671;48.972;9.276;2023-06-14T02:47:05;0.47;;;0.47;;
1354;SDS011;671;48.972;9.276;2023-06-14T02:49:32;0.43;;;0.43;;
1354;SDS011;671;48.972;9.276;2023-06-14T02:51:59;0.50;;;0.50;;
1354;SDS011;671;48.972;9.276;2023-06-14T02:54:25;0.50;;;0.50;;
1354;SDS011;671;48.972;9.276;2023-06-14T02:56:52;0.50;;;0.50;;
1354;SDS011;671;48.972;9.276;2023-06-14T02:59:18;0.47;;;0.47;;
1354;SDS011;671;48.972;9.276;2023-06-14T03:01:45;0.40;;;0.40;;
1354;SDS011;671;48.972;9.276;2023-06-14T03:04:12;0.40;;;0.40;;
1354;SDS011;671;48.972;9.276;2023-06-14T03:06:38;0.60;;;0.60;;
1354;SDS011;671;48.972;9.276;2023-06-14T03:09:05;0.43;;;0.43;;
1354;SDS011;671;48.972;9.276;2023-06-14T03:11:32;0.40;;;0.40;;
1354;SDS011;671;48.972;9.276;2023-06-14T03:13:58;0.40;;;0.40;;
1354;SDS011;671;48.972;9.276;2023-06-14T03:16:26;0.50;;;0.50;;
1354;SDS011;671;48.972;9.276;2023-06-14T03:18:54;0.50;;;0.50;;
1354;SDS011;671;48.972;9.276;2023-06-14T03:21:21;0.43;;;0.43;;
1354;SDS011;671;48.972;9.276;2023-06-14T03:23:48;0.40;;;0.40;;
1354;SDS011;671;48.972;9.276;2023-06-14T03:26:15;0.50;;;0.50;;
1354;SDS011;671;48.972;9.276;2023-06-14T03:28:44;0.40;;;0.40;;
1354;SDS011;671;48.972;9.276;2023-06-14T03:31:14;0.40;;;0.30;;
1354;SDS011;671;48.972;9.276;2023-06-14T03:33:42;0.40;;;0.40;;
1354;SDS011;671;48.972;9.276;2023-06-14T03:36:08;0.40;;;0.40;;
1354;SDS011;671;48.972;9.276;2023-06-14T03:38:35;0.50;;;0.50;;
1354;SDS011;671;48.972;9.276;2023-06-14T03:41:01;0.40;;;0.30;;
1354;SDS011;671;48.972;9.276;2023-06-14T03:43:28;0.60;;;0.60;;
1354;SDS011;671;48.972;9.276;2023-06-14T03:45:56;0.50;;;0.50;;
1354;SDS011;671;48.972;9.276;2023-06-14T03:48:22;0.40;;;0.40;;
1354;SDS011;671;48.972;9.276;2023-06-14T03:50:49;0.43;;;0.43;;
1354;SDS011;671;48.972;9.276;2023-06-14T03:53:16;0.50;;;0.50;;
1354;SDS011;671;48.972;9.276;2023-06-14T03:55:42;0.47;;;0.47;;
1354;SDS011;671;48.972;9.276;2023-06-14T03:58:09;0.53;;;0.53;;
1354;SDS011;671;48.972;9.276;2023-06-14T04:00:36;0.40;;;0.40;;
1354;SDS011;671;48.972;9.276;2023-06-14T04:03:03;0.47;;;0.47;;
1354;SDS011;671;48.972;9.276;2023-06-14T04:05:31;0.50;;;0.50;;
1354;SDS011;671;48.972;9.276;2023-06-14T04:07:58;0.50;;;0.50;;
1354;SDS011;671;48.972;9.276;2023-06-14T04:10:24;0.40;;;0.40;;
1354;SDS011;671;48.972;9.276;2023-06-14T04:12:51;0.50;;;0.50;;
1354;SDS011;671;48.972;9.276;2023-06-14T04:15:18;0.50;;;0.50;;
1354;SDS011;671;48.972;9.276;2023-06-14T04:17:45;0.40;;;0.37;;
1354;SDS011;671;48.972;9.276;2023-06-14T04:20:11;0.40;;;0.30;;
1354;SDS011;671;48.972;9.276;2023-06-14T04:22:38;0.50;;;0.50;;
1354;SDS011;671;48.972;9.276;2023-06-14T04:25:04;0.50;;;0.50;;
1354;SDS011;671;48.972;9.276;2023-06-14T04:27:32;0.50;;;0.50;;
1354;SDS011;671;48.972;9.276;2023-06-14T04:30:00;0.40;;;0.40;;
1354;SDS011;671;48.972;9.276;2023-06-14T04:32:29;0.40;;;0.37;;
1354;SDS011;671;48.972;9.276;2023-06-14T04:34:59;0.50;;;0.50;;
1354;SDS011;671;48.972;9.276;2023-06-14T04:37:28;0.40;;;0.40;;
1354;SDS011;671;48.972;9.276;2023-06-14T04:39:56;0.50;;;0.50;;
1354;SDS011;671;48.972;9.276;2023-06-14T04:42:23;0.40;;;0.40;;
1354;SDS011;671;48.972;9.276;2023-06-14T04:44:51;0.50;;;0.50;;
1354;SDS011;671;48.972;9.276;2023-06-14T04:47:21;0.50;;;0.50;;
1354;SDS011;671;48.972;9.276;2023-06-14T04:49:48;0.40;;;0.30;;
1354;SDS011;671;48.972;9.276;2023-06-14T04:52:16;0.43;;;0.43;;
1354;SDS011;671;48.972;9.276;2023-06-14T04:54:43;0.43;;;0.43;;
1354;SDS011;671;48.972;9.276;2023-06-14T04:57:09;0.30;;;0.30;;
1354;SDS011;671;48.972;9.276;2023-06-14T04:59:40;0.40;;;0.40;;
1354;SDS011;671;48.972;9.276;2023-06-14T05:02:07;0.40;;;0.40;;
1354;SDS011;671;48.972;9.276;2023-06-14T05:04:34;0.40;;;0.40;;
1354;SDS011;671;48.972;9.276;2023-06-14T05:07:08;0.40;;;0.40;;
1354;SDS011;671;48.972;9.276;2023-06-14T05:09:35;0.40;;;0.40;;
1354;SDS011;671;48.972;9.276;2023-06-14T05:12:02;0.40;;;0.40;;
1354;SDS011;671;48.972;9.276;2023-06-14T05:14:29;0.40;;;0.40;;
1354;SDS011;671;48.972;9.276;2023-06-14T05:16:56;0.40;;;0.40;;
1354;SDS011;671;48.972;9.276;2023-06-14T05:19:23;0.40;;;0.40;;
1354;SDS011;671;48.972;9.276;2023-06-14T05:21:49;0.40;;;0.30;;
1354;SDS011;671;48.972;9.276;2023-06-14T05:24:16;0.30;;;0.30;;
1354;SDS011;671;48.972;9.276;2023-06-14T05:26:46;0.40;;;0.40;;
1354;SDS011;671;48.972;9.276;2023-06-14T05:29:12;0.30;;;0.30;;
1354;SDS011;671;48.972;9.276;2023-06-14T05:31:39;0.30;;;0.20;;
1354;SDS011;671;48.972;9.276;2023-06-14T05:34:05;0.30;;;0.30;;
1354;SDS011;671;48.972;9.276;2023-06-14T05:36:32;0.30;;;0.20;;
1354;SDS011;671;48.972;9.276;2023-06-14T05:38:58;0.30;;;0.30;;
1354;SDS011;671;48.972;9.276;2023-06-14T05:41:26;0.30;;;0.30;;
1354;SDS011;671;48.972;9.276;2023-06-14T05:43:53;0.30;;;0.20;;
1354;SDS011;671;48.972;9.276;2023-06-14T05:46:21;0.30;;;0.20;;
1354;SDS011;671;48.972;9.276;2023-06-14T05:48:53;0.30;;;0.20;;
1354;SDS011;671;48.972;9.276;2023-06-14T05:51:20;0.30;;;0.30;;
1354;SDS011;671;48.972;9.276;2023-06-14T05:53:48;0.30;;;0.20;;
1354;SDS011;671;48.972;9.276;2023-06-14T05:56:14;0.30;;;0.20;;
1354;SDS011;671;48.972;9.276;2023-06-14T05:58:43;0.30;;;0.23;;
1354;SDS011;671;48.972;9.276;2023-06-14T06:01:10;0.30;;;0.20;;
1354;SDS011;671;48.972;9.276;2023-06-14T06:03:37;0.30;;;0.20;;
1354;SDS011;671;48.972;9.276;2023-06-14T06:06:03;0.30;;;0.23;;
1354;SDS011;671;48.972;9.276;2023-06-14T06:08:30;0.30;;;0.30;;
1354;SDS011;671;48.972;9.276;2023-06-14T06:10:58;0.30;;;0.30;;
1354;SDS011;671;48.972;9.276;2023-06-14T06:13:26;0.30;;;0.20;;
1354;SDS011;671;48.972;9.276;2023-06-14T06:15:52;0.30;;;0.20;;
1354;SDS011;671;48.972;9.276;2023-06-14T06:18:19;0.30;;;0.20;;
1354;SDS011;671;48.972;9.276;2023-06-14T06:20:45;0.30;;;0.20;;
1354;SDS011;671;48.972;9.276;2023-06-14T06:23:13;0.30;;;0.30;;
1354;SDS011;671;48.972;9.276;2023-06-14T06:25:39;0.30;;;0.27;;
1354;SDS011;671;48.972;9.276;2023-06-14T06:28:06;0.30;;;0.30;;
1354;SDS011;671;48.972;9.276;2023-06-14T06:30:32;0.30;;;0.20;;
1354;SDS011;671;48.972;9.276;2023-06-14T06:32:59;0.30;;;0.20;;
1354;SDS011;671;48.972;9.276;2023-06-14T06:35:25;0.30;;;0.20;;
1354;SDS011;671;48.972;9.276;2023-06-14T06:37:52;0.30;;;0.30;;
1354;SDS011;671;48.972;9.276;2023-06-14T06:40:18;0.30;;;0.30;;
1354;SDS011;671;48.972;9.276;2023-06-14T06:42:45;0.30;;;0.20;;
1354;SDS011;671;48.972;9.276;2023-06-14T06:45:12;0.30;;;0.20;;
1354;SDS011;671;48.972;9.276;2023-06-14T06:47:38;0.30;;;0.20;;
1354;SDS011;671;48.972;9.276;2023-06-14T06:50:05;0.30;;;0.20;;
1354;SDS011;671;48.972;9.276;2023-06-14T06:52:33;0.30;;;0.30;;
1354;SDS011;671;48.972;9.276;2023-06-14T06:55:00;0.30;;;0.20;;
1354;SDS011;671;48.972;9.276;2023-06-14T06:57:28;0.30;;;0.20;;
1354;SDS011;671;48.972;9.276;2023-06-14T06:59:55;0.30;;;0.20;;
1354;SDS011;671;48.972;9.276;2023-06-14T07:02:22;0.30;;;0.20;;
1354;SDS011;671;48.972;9.276;2023-06-14T07:04:49;0.30;;;0.20;;
1354;SDS011;671;48.972;9.276;2023-06-14T07:07:15;0.30;;;0.20;;
1354;SDS011;671;48.972;9.276;2023-06-14T07:09:42;0.30;;;0.20;;
1354;SDS011;671;48.972;9.276;2023-06-14T07:12:08;0.30;;;0.20;;
1354;SDS011;671;48.972;9.276;2023-06-14T07:14:35;0.30;;;0.20;;
1354;SDS011;671;48.972;9.276;2023-06-14T07:17:01;0.30;;;0.20;;
1354;SDS011;671;48.972;9.276;2023-06-14T07:19:27;0.30;;;0.20;;
1354;SDS011;671;48.972;9.276;2023-06-14T07:21:52;0.30;;;0.20;;
1354;SDS011;671;48.972;9.276;2023-06-14T07:24:19;0.30;;;0.20;;
1354;SDS011;671;48.972;9.276;2023-06-14T07:26:47;0.30;;;0.20;;
1354;SDS011;671;48.972;9.276;2023-06-14T07:29:17;0.30;;;0.20;;
1354;SDS011;671;48.972;9.276;2023-06-14T07:31:43;0.30;;;0.20;;
1354;SDS011;671;48.972;9.276;2023-06-14T07:34:10;0.30;;;0.20;;
1354;SDS011;671;48.972;9.276;2023-06-14T07:36:36;0.30;;;0.20;;
1354;SDS011;671;48.972;9.276;2023-06-14T07:39:04;0.30;;;0.20;;
1354;SDS011;671;48.972;9.276;2023-06-14T07:41:32;0.30;;;0.20;;
1354;SDS011;671;48.972;9.276;2023-06-14T07:43:59;0.30;;;0.20;;
1354;SDS011;671;48.972;9.276;2023-06-14T07:46:25;0.30;;;0.20;;
1354;SDS011;671;48.972;9.276;2023-06-14T07:48:52;0.30;;;0.20;;
1354;SDS011;671;48.972;9.276;2023-06-14T07:51:18;0.30;;;0.20;;
1354;SDS011;671;48.972;9.276;2023-06-14T07:53:45;0.30;;;0.20;;
1354;SDS011;671;48.972;9.276;2023-06-14T07:56:12;0.30;;;0.20;;
1354;SDS011;671;48.972;9.276;2023-06-14T07:58:38;0.30;;;0.20;;
1354;SDS011;671;48.972;9.276;2023-06-14T08:01:05;0.30;;;0.20;;
1354;SDS011;671;48.972;9.276;2023-06-14T08:03:33;0.30;;;0.20;;
1354;SDS011;671;48.972;9.276;2023-06-14T08:06:00;0.30;;;0.20;;
1354;SDS011;671;48.972;9.276;2023-06-14T08:08:27;0.30;;;0.20;;
1354;SDS011;671;48.972;9.276;2023-06-14T08:10:54;0.30;;;0.20;;
1354;SDS011;671;48.972;9.276;2023-06-14T08:13:20;0.30;;;0.20;;
1354;SDS011;671;48.972;9.276;2023-06-14T08:15:47;0.30;;;0.20;;
1354;SDS011;671;48.972;9.276;2023-06-14T08:18:13;0.30;;;0.20;;
1354;SDS011;671;48.972;9.276;2023-06-14T08:20:40;0.30;;;0.20;;
1354;SDS011;671;48.972;9.276;2023-06-14T08:23:07;0.30;;;0.20;;
1354;SDS011;671;48.972;9.276;2023-06-14T08:25:34;0.30;;;0.20;;
1354;SDS011;671;48.972;9.276;2023-06-14T08:28:01;0.30;;;0.20;;
1354;SDS011;671;48.972;9.276;2023-06-14T08:30:27;0.30;;;0.20;;
1354;SDS011;671;48.972;9.276;2023-06-14T08:32:54;0.30;;;0.20;;
1354;SDS011;671;48.972;9.276;2023-06-14T08:35:22;0.30;;;0.20;;
1354;SDS011;671;48.972;9.276;2023-06-14T08:37:49;0.30;;;0.20;;
1354;SDS011;671;48.972;9.276;2023-06-14T08:40:20;0.30;;;0.20;;
1354;SDS011;671;48.972;9.276;2023-06-14T08:42:51;0.30;;;0.20;;
1354;SDS011;671;48.972;9.276;2023-06-14T08:45:19;0.30;;;0.20;;
1354;SDS011;671;48.972;9.276;2023-06-14T08:47:47;0.30;;;0.20;;
1354;SDS011;671;48.972;9.276;2023-06-14T08:50:21;0.30;;;0.20;;
1354;SDS011;671;48.972;9.276;2023-06-14T08:52:53;0.30;;;0.20;;
1354;SDS011;671;48.972;9.276;2023-06-14T08:55:23;0.30;;;0.10;;
1354;SDS011;671;48.972;9.276;2023-06-14T08:57:56;0.30;;;0.10;;
1354;SDS011;671;48.972;9.276;2023-06-14T09:00:24;0.30;;;0.20;;
1354;SDS011;671;48.972;9.276;2023-06-14T09:02:52;0.30;;;0.20;;
1354;SDS011;671;48.972;9.276;2023-06-14T09:05:23;0.30;;;0.20;;
1354;SDS011;671;48.972;9.276;2023-06-14T09:07:51;0.30;;;0.10;;
1354;SDS011;671;48.972;9.276;2023-06-14T09:10:18;0.30;;;0.20;;
1354;SDS011;671;48.972;9.276;2023-06-14T09:12:46;0.30;;;0.20;;
1354;SDS011;671;48.972;9.276;2023-06-14T09:15:13;0.30;;;0.20;;
1354;SDS011;671;48.972;9.276;2023-06-14T09:17:40;0.30;;;0.10;;
1354;SDS011;671;48.972;9.276;2023-06-14T09:20:08;0.30;;;0.20;;
1354;SDS011;671;48.972;9.276;2023-06-14T09:22:37;0.30;;;0.20;;
1354;SDS011;671;48.972;9.276;2023-06-14T09:25:04;0.30;;;0.10;;
1354;SDS011;671;48.972;9.276;2023-06-14T09:27:32;0.30;;;0.10;;
1354;SDS011;671;48.972;9.276;2023-06-14T09:30:02;0.30;;;0.20;;
1354;SDS011;671;48.972;9.276;2023-06-14T09:32:29;0.30;;;0.10;;
1354;SDS011;671;48.972;9.276;2023-06-14T09:34:56;0.30;;;0.20;;
1354;SDS011;671;48.972;9.276;2023-06-14T09:37:30;0.30;;;0.10;;
1354;SDS011;671;48.972;9.276;2023-06-14T09:39:57;0.30;;;0.10;;
1354;SDS011;671;48.972;9.276;2023-06-14T09:42:25;0.30;;;0.20;;
1354;SDS011;671;48.972;9.276;2023-06-14T09:44:52;0.30;;;0.20;;
1354;SDS011;671;48.972;9.276;2023-06-14T09:47:21;0.30;;;0.20;;
1354;SDS011;671;48.972;9.276;2023-06-14T09:49:48;0.30;;;0.10;;
1354;SDS011;671;48.972;9.276;2023-06-14T09:52:17;0.30;;;0.20;;
1354;SDS011;671;48.972;9.276;2023-06-14T09:54:45;0.30;;;0.20;;
1354;SDS011;671;48.972;9.276;2023-06-14T09:57:13;0.30;;;0.10;;
1354;SDS011;671;48.972;9.276;2023-06-14T09:59:42;0.30;;;0.10;;
1354;SDS011;671;48.972;9.276;2023-06-14T10:02:14;0.30;;;0.10;;
1354;SDS011;671;48.972;9.276;2023-06-14T10:04:53;0.30;;;0.10;;
1354;SDS011;671;48.972;9.276;2023-06-14T10:08:15;0.30;;;0.20;;
1354;SDS011;671;48.972;9.276;2023-06-14T10:10:25;0.30;;;0.10;;
1354;SDS011;671;48.972;9.276;2023-06-14T10:12:52;0.30;;;0.20;;
1354;SDS011;671;48.972;9.276;2023-06-14T10:15:20;0.30;;;0.10;;
1354;SDS011;671;48.972;9.276;2023-06-14T10:17:55;0.30;;;0.10;;
1354;SDS011;671;48.972;9.276;2023-06-14T10:23:33;0.30;;;0.10;;
1354;SDS011;671;48.972;9.276;2023-06-14T10:26:05;0.30;;;0.10;;
1354;SDS011;671;48.972;9.276;2023-06-14T10:28:32;0.30;;;0.10;;
1354;SDS011;671;48.972;9.276;2023-06-14T10:33:36;0.30;;;0.10;;
1354;SDS011;671;48.972;9.276;2023-06-14T10:36:08;0.30;;;0.10;;
1354;SDS011;671;48.972;9.276;2023-06-14T10:38:36;0.30;;;0.10;;
1354;SDS011;671;48.972;9.276;2023-06-14T10:41:04;0.30;;;0.10;;
1354;SDS011;671;48.972;9.276;2023-06-14T10:43:32;0.30;;;0.10;;
1354;SDS011;671;48.972;9.276;2023-06-14T10:46:17;0.30;;;0.10;;
1354;SDS011;671;48.972;9.276;2023-06-14T10:48:47;0.30;;;0.10;;
1354;SDS011;671;48.972;9.276;2023-06-14T10:51:18;0.30;;;0.10;;
1354;SDS011;671;48.972;9.276;2023-06-14T10:53:46;0.50;;;0.37;;
1354;SDS011;671;48.972;9.276;2023-06-14T10:56:26;0.30;;;0.10;;
1354;SDS011;671;48.972;9.276;2023-06-14T10:58:54;0.30;;;0.10;;
1354;SDS011;671;48.972;9.276;2023-06-14T11:01:41;0.30;;;0.10;;
1354;SDS011;671;48.972;9.276;2023-06-14T11:04:40;0.30;;;0.10;;
1354;SDS011;671;48.972;9.276;2023-06-14T11:12:49;0.30;;;0.10;;
1354;SDS011;671;48.972;9.276;2023-06-14T11:15:20;0.30;;;0.10;;
1354;SDS011;671;48.972;9.276;2023-06-14T11:17:53;0.30;;;0.10;;
1354;SDS011;671;48.972;9.276;2023-06-14T11:20:24;0.30;;;0.10;;
1354;SDS011;671;48.972;9.276;2023-06-14T11:22:52;0.30;;;0.10;;
1354;SDS011;671;48.972;9.276;2023-06-14T11:25:19;0.30;;;0.10;;
1354;SDS011;671;48.972;9.276;2023-06-14T11:27:48;0.30;;;0.10;;
1354;SDS011;671;48.972;9.276;2023-06-14T11:30:16;0.30;;;0.10;;
1354;SDS011;671;48.972;9.276;2023-06-14T11:32:46;0.30;;;0.10;;
1354;SDS011;671;48.972;9.276;2023-06-14T11:35:13;0.30;;;0.10;;
1354;SDS011;671;48.972;9.276;2023-06-14T11:37:40;0.30;;;0.10;;
1354;SDS011;671;48.972;9.276;2023-06-14T11:40:10;0.30;;;0.10;;
1354;SDS011;671;48.972;9.276;2023-06-14T11:42:39;0.30;;;0.10;;
1354;SDS011;671;48.972;9.276;2023-06-14T11:45:07;0.30;;;0.10;;
1354;SDS011;671;48.972;9.276;2023-06-14T11:47:35;0.30;;;0.10;;
1354;SDS011;671;48.972;9.276;2023-06-14T11:50:03;0.30;;;0.10;;
1354;SDS011;671;48.972;9.276;2023-06-14T11:52:31;0.30;;;0.10;;
1354;SDS011;671;48.972;9.276;2023-06-14T11:54:58;0.30;;;0.10;;
1354;SDS011;671;48.972;9.276;2023-06-14T11:57:25;0.30;;;0.10;;
1354;SDS011;671;48.972;9.276;2023-06-14T11:59:51;0.30;;;0.10;;
1354;SDS011;671;48.972;9.276;2023-06-14T12:02:21;0.30;;;0.10;;
1354;SDS011;671;48.972;9.276;2023-06-14T12:04:48;0.30;;;0.10;;
1354;SDS011;671;48.972;9.276;2023-06-14T12:07:15;0.30;;;0.10;;
1354;SDS011;671;48.972;9.276;2023-06-14T12:12:26;0.30;;;0.10;;
1354;SDS011;671;48.972;9.276;2023-06-14T12:14:53;0.30;;;0.10;;
1354;SDS011;671;48.972;9.276;2023-06-14T12:17:22;0.30;;;0.10;;
1354;SDS011;671;48.972;9.276;2023-06-14T12:19:48;0.30;;;0.10;;
1354;SDS011;671;48.972;9.276;2023-06-14T12:22:16;0.30;;;0.10;;
1354;SDS011;671;48.972;9.276;2023-06-14T12:24:43;0.30;;;0.10;;
1354;SDS011;671;48.972;9.276;2023-06-14T12:27:11;0.30;;;0.10;;
1354;SDS011;671;48.972;9.276;2023-06-14T12:29:42;0.30;;;0.10;;
1354;SDS011;671;48.972;9.276;2023-06-14T12:32:11;0.30;;;0.10;;
1354;SDS011;671;48.972;9.276;2023-06-14T12:34:38;0.30;;;0.10;;
1354;SDS011;671;48.972;9.276;2023-06-14T12:37:04;0.30;;;0.10;;
1354;SDS011;671;48.972;9.276;2023-06-14T12:39:32;0.30;;;0.10;;
1354;SDS011;671;48.972;9.276;2023-06-14T12:41:59;0.30;;;0.10;;
1354;SDS011;671;48.972;9.276;2023-06-14T12:44:25;0.30;;;0.10;;
1354;SDS011;671;48.972;9.276;2023-06-14T12:46:52;0.30;;;0.10;;
1354;SDS011;671;48.972;9.276;2023-06-14T12:49:20;0.30;;;0.10;;
1354;SDS011;671;48.972;9.276;2023-06-14T12:51:46;0.30;;;0.10;;
1354;SDS011;671;48.972;9.276;2023-06-14T12:54:13;0.30;;;0.10;;
1354;SDS011;671;48.972;9.276;2023-06-14T12:56:40;0.30;;;0.10;;
1354;SDS011;671;48.972;9.276;2023-06-14T12:59:08;0.30;;;0.10;;
1354;SDS011;671;48.972;9.276;2023-06-14T13:01:35;0.30;;;0.10;;
1354;SDS011;671;48.972;9.276;2023-06-14T13:04:03;0.30;;;0.10;;
1354;SDS011;671;48.972;9.276;2023-06-14T13:06:30;0.30;;;0.10;;
1354;SDS011;671;48.972;9.276;2023-06-14T13:08:57;0.30;;;0.10;;
1354;SDS011;671;48.972;9.276;2023-06-14T13:11:24;0.30;;;0.10;;
1354;SDS011;671;48.972;9.276;2023-06-14T13:13:51;0.30;;;0.10;;
1354;SDS011;671;48.972;9.276;2023-06-14T13:16:17;0.30;;;0.10;;
1354;SDS011;671;48.972;9.276;2023-06-14T13:18:44;0.30;;;0.10;;
1354;SDS011;671;48.972;9.276;2023-06-14T13:21:10;0.30;;;0.10;;
1354;SDS011;671;48.972;9.276;2023-06-14T13:23:37;0.30;;;0.10;;
1354;SDS011;671;48.972;9.276;2023-06-14T13:26:03;0.30;;;0.10;;
1354;SDS011;671;48.972;9.276;2023-06-14T13:28:30;0.30;;;0.10;;
1354;SDS011;671;48.972;9.276;2023-06-14T13:30:57;0.30;;;0.10;;
1354;SDS011;671;48.972;9.276;2023-06-14T13:33:24;0.30;;;0.10;;
1354;SDS011;671;48.972;9.276;2023-06-14T13:35:50;0.30;;;0.10;;
1354;SDS011;671;48.972;9.276;2023-06-14T13:38:18;0.30;;;0.10;;
1354;SDS011;671;48.972;9.276;2023-06-14T13:40:45;0.30;;;0.10;;
1354;SDS011;671;48.972;9.276;2023-06-14T13:43:11;0.30;;;0.10;;
1354;SDS011;671;48.972;9.276;2023-06-14T13:45:38;0.30;;;0.10;;
1354;SDS011;671;48.972;9.276;2023-06-14T13:48:05;0.30;;;0.10;;
1354;SDS011;671;48.972;9.276;2023-06-14T13:50:31;0.30;;;0.10;;
1354;SDS011;671;48.972;9.276;2023-06-14T13:52:58;0.30;;;0.10;;
1354;SDS011;671;48.972;9.276;2023-06-14T13:55:24;0.30;;;0.10;;
1354;SDS011;671;48.972;9.276;2023-06-14T13:57:51;0.30;;;0.10;;
1354;SDS011;671;48.972;9.276;2023-06-14T14:00:18;0.30;;;0.10;;
1354;SDS011;671;48.972;9.276;2023-06-14T14:02:45;0.30;;;0.10;;
1354;SDS011;671;48.972;9.276;2023-06-14T14:05:11;0.30;;;0.10;;
1354;SDS011;671;48.972;9.276;2023-06-14T14:07:38;0.30;;;0.10;;
1354;SDS011;671;48.972;9.276;2023-06-14T14:10:05;0.30;;;0.10;;
1354;SDS011;671;48.972;9.276;2023-06-14T14:12:32;0.30;;;0.10;;
1354;SDS011;671;48.972;9.276;2023-06-14T14:14:59;0.30;;;0.10;;
1354;SDS011;671;48.972;9.276;2023-06-14T14:17:25;0.30;;;0.20;;
1354;SDS011;671;48.972;9.276;2023-06-14T14:19:52;0.30;;;0.10;;
1354;SDS011;671;48.972;9.276;2023-06-14T14:22:18;0.30;;;0.10;;
1354;SDS011;671;48.972;9.276;2023-06-14T14:24:45;0.30;;;0.10;;
1354;SDS011;671;48.972;9.276;2023-06-14T14:27:12;0.30;;;0.10;;
1354;SDS011;671;48.972;9.276;2023-06-14T14:29:39;0.30;;;0.10;;
1354;SDS011;671;48.972;9.276;2023-06-14T14:32:06;0.30;;;0.10;;
1354;SDS011;671;48.972;9.276;2023-06-14T14:34:33;0.30;;;0.10;;
1354;SDS011;671;48.972;9.276;2023-06-14T14:36:59;0.30;;;0.10;;
1354;SDS011;671;48.972;9.276;2023-06-14T14:39:26;0.30;;;0.10;;
1354;SDS011;671;48.972;9.276;2023-06-14T14:41:52;0.30;;;0.10;;
1354;SDS011;671;48.972;9.276;2023-06-14T14:44:19;0.30;;;0.10;;
1354;SDS011;671;48.972;9.276;2023-06-14T14:46:45;0.30;;;0.10;;
1354;SDS011;671;48.972;9.276;2023-06-14T14:49:12;0.30;;;0.10;;
1354;SDS011;671;48.972;9.276;2023-06-14T14:51:38;0.30;;;0.10;;
1354;SDS011;671;48.972;9.276;2023-06-14T14:54:06;0.30;;;0.10;;
1354;SDS011;671;48.972;9.276;2023-06-14T14:56:32;0.30;;;0.10;;
1354;SDS011;671;48.972;9.276;2023-06-14T14:59:01;0.30;;;0.10;;
1354;SDS011;671;48.972;9.276;2023-06-14T15:01:28;0.30;;;0.10;;
1354;SDS011;671;48.972;9.276;2023-06-14T15:03:55;0.30;;;0.10;;
1354;SDS011;671;48.972;9.276;2023-06-14T15:06:21;0.30;;;0.10;;
1354;SDS011;671;48.972;9.276;2023-06-14T15:08:48;0.30;;;0.10;;
1354;SDS011;671;48.972;9.276;2023-06-14T15:11:14;0.30;;;0.10;;
1354;SDS011;671;48.972;9.276;2023-06-14T15:13:41;0.30;;;0.10;;
1354;SDS011;671;48.972;9.276;2023-06-14T15:16:07;0.30;;;0.10;;
1354;SDS011;671;48.972;9.276;2023-06-14T15:18:34;0.30;;;0.10;;
1354;SDS011;671;48.972;9.276;2023-06-14T15:21:01;0.30;;;0.10;;
1354;SDS011;671;48.972;9.276;2023-06-14T15:23:27;0.40;;;0.40;;
1354;SDS011;671;48.972;9.276;2023-06-14T15:25:54;0.30;;;0.10;;
1354;SDS011;671;48.972;9.276;2023-06-14T15:28:20;0.30;;;0.10;;
1354;SDS011;671;48.972;9.276;2023-06-14T15:30:48;0.30;;;0.10;;
1354;SDS011;671;48.972;9.276;2023-06-14T15:33:14;0.30;;;0.10;;
1354;SDS011;671;48.972;9.276;2023-06-14T15:35:41;0.30;;;0.20;;
1354;SDS011;671;48.972;9.276;2023-06-14T15:38:07;0.30;;;0.10;;
1354;SDS011;671;48.972;9.276;2023-06-14T15:40:34;0.30;;;0.10;;
1354;SDS011;671;48.972;9.276;2023-06-14T15:43:00;0.30;;;0.10;;
1354;SDS011;671;48.972;9.276;2023-06-14T15:45:27;0.30;;;0.10;;
1354;SDS011;671;48.972;9.276;2023-06-14T15:47:53;0.30;;;0.10;;
1354;SDS011;671;48.972;9.276;2023-06-14T15:50:20;0.30;;;0.10;;